createdAt,value
2022-09-21T00:01:23.698Z,13.38
2022-09-21T00:04:01.308Z,13.33
2022-09-21T00:06:29.177Z,13.33
2022-09-21T00:08:56.309Z,13.33
2022-09-21T00:11:27.516Z,13.28
2022-09-21T00:13:55.440Z,13.29
2022-09-21T00:16:22.856Z,13.30
2022-09-21T00:18:49.712Z,13.27
2022-09-21T00:21:16.856Z,13.27
2022-09-21T00:23:44.226Z,13.25
2022-09-21T00:26:15.985Z,13.24
2022-09-21T00:28:43.748Z,13.22
2022-09-21T00:31:12.429Z,13.25
2022-09-21T00:33:43.491Z,13.24
2022-09-21T00:36:16.759Z,13.23
2022-09-21T00:38:44.221Z,13.22
2022-09-21T00:41:11.139Z,13.20
2022-09-21T00:43:42.568Z,13.22
2022-09-21T00:46:29.017Z,13.20
2022-09-21T00:48:55.836Z,13.21
2022-09-21T00:51:22.992Z,13.22
2022-09-21T00:53:52.383Z,13.22
2022-09-21T00:56:20.333Z,13.18
2022-09-21T00:58:50.049Z,13.20
2022-09-21T01:01:18.385Z,13.21
2022-09-21T01:03:46.376Z,13.18
2022-09-21T01:06:13.875Z,13.18
2022-09-21T01:08:41.528Z,13.17
2022-09-21T01:11:39.315Z,13.16
2022-09-21T01:14:09.539Z,13.17
2022-09-21T01:17:06.595Z,13.14
2022-09-21T01:19:34.786Z,13.14
2022-09-21T01:22:14.196Z,13.12
2022-09-21T01:24:56.427Z,13.12
2022-09-21T01:27:44.939Z,13.12
2022-09-21T01:30:16.087Z,13.12
2022-09-21T01:32:53.219Z,13.12
2022-09-21T01:35:45.127Z,13.11
2022-09-21T01:38:19.591Z,13.12
2022-09-21T01:40:50.334Z,13.11
2022-09-21T01:43:26.532Z,13.11
2022-09-21T01:45:54.949Z,13.10
2022-09-21T01:48:22.550Z,13.10
2022-09-21T01:50:56.626Z,13.09
2022-09-21T01:53:41.582Z,13.07
2022-09-21T01:56:23.926Z,13.07
2022-09-21T01:59:03.317Z,13.07
2022-09-21T02:01:30.783Z,13.07
2022-09-21T02:03:59.594Z,13.03
2022-09-21T02:06:27.214Z,13.06
2022-09-21T02:08:54.022Z,13.05
2022-09-21T02:11:21.333Z,13.02
2022-09-21T02:13:49.740Z,13.02
2022-09-21T02:16:36.558Z,12.99
2022-09-21T02:19:24.254Z,13.00
2022-09-21T02:21:57.586Z,13.02
2022-09-21T02:24:33.694Z,13.02
2022-09-21T02:27:35.921Z,12.99
2022-09-21T02:30:21.685Z,12.99
2022-09-21T02:33:12.325Z,13.01
2022-09-21T02:35:42.445Z,13.00
2022-09-21T02:38:09.177Z,13.01
2022-09-21T02:40:40.818Z,13.00
2022-09-21T02:43:20.786Z,13.01
2022-09-21T02:45:53.049Z,12.99
2022-09-21T02:48:33.685Z,12.96
2022-09-21T02:51:04.394Z,12.96
2022-09-21T02:53:33.505Z,12.96
2022-09-21T02:56:06.949Z,12.97
2022-09-21T02:58:56.976Z,12.98
2022-09-21T03:01:23.965Z,12.95
2022-09-21T03:03:51.329Z,12.93
2022-09-21T03:06:18.244Z,12.95
2022-09-21T03:08:45.035Z,12.95
2022-09-21T03:11:15.937Z,12.94
2022-09-21T03:13:42.957Z,12.93
2022-09-21T03:16:09.847Z,12.95
2022-09-21T03:18:36.853Z,12.92
2022-09-21T03:21:03.757Z,12.93
2022-09-21T03:23:30.632Z,12.92
2022-09-21T03:25:57.668Z,12.92
2022-09-21T03:28:24.494Z,12.90
2022-09-21T03:30:51.712Z,12.92
2022-09-21T03:33:20.932Z,12.92
2022-09-21T03:35:51.229Z,12.92
2022-09-21T03:38:18.842Z,12.92
2022-09-21T03:40:46.593Z,12.92
2022-09-21T03:43:13.436Z,12.90
2022-09-21T03:45:42.078Z,12.89
2022-09-21T03:48:10.380Z,12.89
2022-09-21T03:50:37.408Z,12.90
2022-09-21T03:53:04.292Z,12.89
2022-09-21T03:55:31.664Z,12.88
2022-09-21T03:57:58.564Z,12.88
2022-09-21T04:00:25.356Z,12.90
2022-09-21T04:02:52.411Z,12.90
2022-09-21T04:05:19.269Z,12.87
2022-09-21T04:07:46.057Z,12.89
2022-09-21T04:10:14.891Z,12.86
2022-09-21T04:12:43.400Z,12.86
2022-09-21T04:15:14.755Z,12.87
2022-09-21T04:17:41.944Z,12.88
2022-09-21T04:20:08.981Z,12.84
2022-09-21T04:22:39.964Z,12.83
2022-09-21T04:25:10.095Z,12.84
2022-09-21T04:27:36.851Z,12.87
2022-09-21T04:30:04.749Z,12.87
2022-09-21T04:32:31.815Z,12.84
2022-09-21T04:34:58.595Z,12.83
2022-09-21T04:37:25.695Z,12.83
2022-09-21T04:39:52.661Z,12.83
2022-09-21T04:42:19.439Z,12.84
2022-09-21T04:44:46.191Z,12.83
2022-09-21T04:47:13.160Z,12.81
2022-09-21T04:49:40.051Z,12.83
2022-09-21T04:52:06.867Z,12.83
2022-09-21T04:54:34.066Z,12.85
2022-09-21T04:57:01.101Z,12.84
2022-09-21T04:59:27.908Z,12.84
2022-09-21T05:01:54.982Z,12.83
2022-09-21T05:04:21.731Z,12.84
2022-09-21T05:06:48.558Z,12.84
2022-09-21T05:09:35.270Z,12.83
2022-09-21T05:12:03.090Z,12.84
2022-09-21T05:14:30.151Z,12.84
2022-09-21T05:16:56.886Z,12.83
2022-09-21T05:19:23.746Z,12.82
2022-09-21T05:21:50.830Z,12.80
2022-09-21T05:24:17.670Z,12.84
2022-09-21T05:26:44.418Z,12.83
2022-09-21T05:29:11.690Z,12.83
2022-09-21T05:31:46.049Z,12.84
2022-09-21T05:34:50.534Z,12.85
2022-09-21T05:37:38.937Z,12.86
2022-09-21T05:40:06.621Z,12.85
2022-09-21T05:42:33.914Z,12.86
2022-09-21T05:45:01.499Z,12.85
2022-09-21T05:48:12.137Z,12.85
2022-09-21T05:50:57.495Z,12.85
2022-09-21T05:53:50.559Z,12.94
2022-09-21T05:56:29.477Z,12.97
2022-09-21T05:59:29.709Z,12.94
2022-09-21T06:02:01.648Z,12.91
2022-09-21T06:04:29.024Z,12.92
2022-09-21T06:06:55.831Z,12.94
2022-09-21T06:09:22.680Z,12.92
2022-09-21T06:11:49.790Z,12.90
2022-09-21T06:14:16.594Z,12.92
2022-09-21T06:16:43.507Z,12.94
2022-09-21T06:19:13.720Z,12.95
2022-09-21T06:21:40.657Z,12.96
2022-09-21T06:24:07.514Z,12.94
2022-09-21T06:26:34.618Z,12.95
2022-09-21T06:29:01.593Z,12.96
2022-09-21T06:31:28.470Z,12.97
2022-09-21T06:33:55.618Z,12.95
2022-09-21T06:36:22.487Z,12.98
2022-09-21T06:38:49.271Z,12.98
2022-09-21T06:41:20.799Z,12.98
2022-09-21T06:43:48.265Z,12.98
2022-09-21T06:46:15.193Z,13.01
2022-09-21T06:48:42.330Z,13.02
2022-09-21T06:51:09.989Z,13.02
2022-09-21T06:53:36.771Z,13.05
2022-09-21T06:56:06.781Z,13.03
2022-09-21T06:58:37.740Z,13.05
2022-09-21T07:01:07.338Z,13.06
2022-09-21T07:03:34.659Z,13.07
2022-09-21T07:06:01.475Z,13.05
2022-09-21T07:11:15.435Z,13.09
2022-09-21T07:13:42.556Z,13.10
2022-09-21T07:16:10.069Z,13.10
2022-09-21T07:18:44.139Z,13.11
2022-09-21T07:21:11.533Z,13.12
2022-09-21T07:23:38.384Z,13.15
2022-09-21T07:26:11.083Z,13.18
2022-09-21T07:28:38.183Z,13.16
2022-09-21T07:31:15.870Z,13.19
2022-09-21T07:33:43.619Z,13.21
2022-09-21T07:36:10.911Z,13.21
2022-09-21T07:38:39.803Z,13.23
2022-09-21T07:41:07.761Z,13.26
2022-09-21T07:43:34.791Z,13.27
2022-09-21T07:46:04.504Z,13.24
2022-09-21T07:48:32.095Z,13.27
2022-09-21T07:51:04.999Z,13.31
2022-09-21T07:53:35.867Z,13.34
2022-09-21T07:56:03.875Z,13.31
2022-09-21T07:58:49.982Z,13.36
2022-09-21T08:01:17.726Z,13.40
2022-09-21T08:03:44.673Z,13.46
2022-09-21T08:06:11.497Z,13.45
2022-09-21T08:08:39.474Z,13.43
2022-09-21T08:11:06.309Z,13.43
2022-09-21T08:13:33.313Z,13.49
2022-09-21T08:16:00.923Z,13.55
2022-09-21T08:18:28.165Z,13.58
2022-09-21T08:20:58.907Z,13.58
2022-09-21T08:23:29.039Z,13.62
2022-09-21T08:26:02.776Z,13.66
2022-09-21T08:28:31.307Z,13.66
2022-09-21T08:31:01.706Z,13.69
2022-09-21T08:33:29.538Z,13.71
2022-09-21T08:35:58.505Z,13.75
2022-09-21T08:38:25.822Z,13.77
2022-09-21T08:40:52.782Z,13.77
2022-09-21T08:43:34.111Z,13.80
2022-09-21T08:46:00.895Z,13.78
2022-09-21T08:48:34.432Z,13.82
2022-09-21T08:51:06.154Z,13.86
2022-09-21T08:53:40.750Z,13.86
2022-09-21T08:56:13.650Z,13.88
2022-09-21T08:58:41.265Z,13.94
2022-09-21T09:01:20.401Z,13.97
2022-09-21T09:03:53.325Z,13.97
2022-09-21T09:06:45.479Z,13.99
2022-09-21T09:09:34.536Z,14.02
2022-09-21T09:12:30.500Z,14.08
2022-09-21T09:15:15.780Z,14.07
2022-09-21T09:17:51.825Z,14.08
2022-09-21T09:20:22.959Z,14.13
2022-09-21T09:23:06.963Z,14.14
2022-09-21T09:25:37.835Z,14.22
2022-09-21T09:28:16.268Z,14.27
2022-09-21T09:30:43.298Z,14.31
2022-09-21T09:33:25.495Z,14.36
2022-09-21T09:35:57.825Z,14.39
2022-09-21T09:38:28.523Z,14.42
2022-09-21T09:41:17.193Z,14.47
2022-09-21T09:44:07.026Z,14.55
2022-09-21T09:46:49.433Z,14.64
2022-09-21T09:49:38.605Z,14.70
2022-09-21T09:52:06.084Z,14.74
2022-09-21T09:54:34.420Z,14.76
2022-09-21T09:57:03.570Z,14.83
2022-09-21T09:59:43.173Z,14.90
2022-09-21T10:02:26.808Z,14.97
2022-09-21T10:05:01.484Z,14.99
2022-09-21T10:07:46.078Z,15.05
2022-09-21T10:10:22.306Z,15.11
2022-09-21T10:12:49.953Z,15.14
2022-09-21T10:15:17.669Z,15.16
2022-09-21T10:17:47.628Z,15.18
2022-09-21T10:20:18.393Z,15.27
2022-09-21T10:22:47.082Z,15.31
2022-09-21T10:25:17.416Z,15.38
2022-09-21T10:27:45.309Z,15.46
2022-09-21T10:30:30.805Z,15.47
2022-09-21T10:32:58.374Z,15.51
2022-09-21T10:35:26.003Z,15.56
2022-09-21T10:38:27.611Z,15.58
2022-09-21T10:40:54.772Z,15.62
2022-09-21T10:43:27.468Z,15.65
2022-09-21T10:45:57.681Z,15.69
2022-09-21T10:48:26.148Z,15.74
2022-09-21T10:50:53.620Z,15.75
2022-09-21T10:53:30.520Z,15.80
2022-09-21T10:56:16.039Z,15.83
2022-09-21T10:59:21.650Z,15.85
2022-09-21T11:01:50.387Z,15.89
2022-09-21T11:08:02.950Z,15.95
2022-09-21T11:10:50.553Z,16.00
2022-09-21T11:16:18.476Z,16.07
2022-09-21T11:19:10.471Z,16.09
2022-09-21T11:21:52.842Z,16.12
2022-09-21T11:24:19.983Z,16.18
2022-09-21T11:27:00.091Z,16.18
2022-09-21T11:29:29.012Z,16.27
2022-09-21T11:32:33.698Z,16.30
2022-09-21T11:35:33.002Z,16.33
2022-09-21T11:38:04.904Z,16.37
2022-09-21T11:40:36.003Z,16.39
2022-09-21T11:43:29.156Z,16.45
2022-09-21T11:46:05.832Z,16.48
2022-09-21T11:48:54.361Z,16.53
2022-09-21T11:51:40.112Z,16.62
2022-09-21T11:55:03.084Z,16.67
2022-09-21T11:57:52.881Z,16.72
2022-09-21T12:00:22.536Z,16.75
2022-09-21T12:03:23.784Z,16.81
2022-09-21T12:06:27.835Z,16.85
2022-09-21T12:09:01.405Z,16.89
2022-09-21T12:11:50.015Z,16.93
2022-09-21T12:14:34.519Z,16.94
2022-09-21T12:17:23.354Z,16.99
2022-09-21T12:20:15.202Z,17.06
2022-09-21T12:22:43.967Z,17.17
2022-09-21T12:25:20.000Z,17.19
2022-09-21T12:27:51.085Z,17.27
2022-09-21T12:30:22.311Z,17.29
2022-09-21T12:32:53.525Z,17.36
2022-09-21T12:35:35.155Z,17.39
2022-09-21T12:38:19.126Z,17.46
2022-09-21T12:40:52.391Z,17.49
2022-09-21T12:44:03.924Z,17.53
2022-09-21T12:46:37.639Z,17.60
2022-09-21T12:49:21.439Z,17.66
2022-09-21T12:51:51.131Z,17.70
2022-09-21T12:54:45.269Z,17.74
2022-09-21T12:58:04.428Z,17.81
2022-09-21T13:00:38.585Z,17.85
2022-09-21T13:03:27.583Z,17.88
2022-09-21T13:06:06.744Z,17.90
2022-09-21T13:08:52.912Z,17.93
2022-09-21T13:11:21.650Z,17.94
2022-09-21T13:14:07.046Z,17.97
2022-09-21T13:16:38.971Z,18.02
2022-09-21T13:19:25.227Z,18.03
2022-09-21T13:22:25.003Z,18.08
2022-09-21T13:25:20.559Z,18.14
2022-09-21T13:28:07.710Z,18.17
2022-09-21T13:30:40.153Z,18.16
2022-09-21T13:33:27.196Z,18.16
2022-09-21T13:36:03.420Z,18.15
2022-09-21T13:38:45.389Z,18.15
2022-09-21T13:41:18.589Z,18.18
2022-09-21T13:43:59.814Z,18.16
2022-09-21T13:46:35.532Z,18.19
2022-09-21T13:49:11.546Z,18.23
2022-09-21T13:52:07.527Z,18.25
2022-09-21T13:54:56.742Z,18.26
2022-09-21T13:57:38.719Z,18.26
2022-09-21T14:00:12.558Z,18.26
2022-09-21T14:02:46.499Z,18.29
2022-09-21T14:05:38.226Z,18.29
2022-09-21T14:08:14.390Z,18.33
2022-09-21T14:10:55.613Z,18.34
2022-09-21T14:13:30.952Z,18.38
2022-09-21T14:16:34.094Z,18.38
2022-09-21T14:19:01.797Z,18.41
2022-09-21T14:21:29.124Z,18.46
2022-09-21T14:24:08.369Z,18.41
2022-09-21T14:26:42.335Z,18.43
2022-09-21T14:29:29.422Z,18.46
2022-09-21T14:31:58.741Z,18.48
2022-09-21T14:34:31.673Z,18.42
2022-09-21T14:36:59.752Z,18.45
2022-09-21T14:39:32.097Z,18.43
2022-09-21T14:42:02.252Z,18.47
2022-09-21T14:44:30.222Z,18.47
2022-09-21T14:47:07.223Z,18.42
2022-09-21T14:49:40.459Z,18.39
2022-09-21T14:52:38.336Z,18.42
2022-09-21T14:55:34.519Z,18.44
2022-09-21T14:58:10.470Z,18.40
2022-09-21T15:00:40.259Z,18.33
2022-09-21T15:03:28.846Z,18.26
2022-09-21T15:06:36.555Z,18.26
2022-09-21T15:09:40.891Z,18.29
2022-09-21T15:12:29.006Z,18.26
2022-09-21T15:15:22.171Z,18.25
2022-09-21T15:17:59.956Z,18.22
2022-09-21T15:20:28.697Z,18.24
2022-09-21T15:22:56.798Z,18.21
2022-09-21T15:25:24.666Z,18.20
2022-09-21T15:27:52.090Z,18.15
2022-09-21T15:30:27.042Z,18.13
2022-09-21T15:32:54.850Z,18.11
2022-09-21T15:35:23.984Z,18.09
2022-09-21T15:37:51.236Z,18.03
2022-09-21T15:40:25.503Z,17.97
2022-09-21T15:43:11.513Z,17.94
2022-09-21T15:46:05.873Z,17.91
2022-09-21T15:48:42.163Z,17.85
2022-09-21T15:51:22.288Z,17.80
2022-09-21T15:53:57.603Z,17.74
2022-09-21T15:56:26.019Z,17.70
2022-09-21T15:59:08.600Z,17.66
2022-09-21T16:01:39.485Z,17.64
2022-09-21T16:04:06.612Z,17.60
2022-09-21T16:06:39.188Z,17.55
2022-09-21T16:09:24.381Z,17.49
2022-09-21T16:11:52.491Z,17.48
2022-09-21T16:14:38.567Z,17.42
2022-09-21T16:17:11.744Z,17.39
2022-09-21T16:19:51.055Z,17.34
2022-09-21T16:22:38.474Z,17.30
2022-09-21T16:25:21.637Z,17.25
2022-09-21T16:28:02.212Z,17.21
2022-09-21T16:30:40.224Z,17.18
2022-09-21T16:33:41.447Z,17.12
2022-09-21T16:36:17.573Z,17.11
2022-09-21T16:38:45.013Z,17.06
2022-09-21T16:41:11.809Z,17.04
2022-09-21T16:43:43.685Z,16.99
2022-09-21T16:46:11.162Z,16.95
2022-09-21T16:48:38.066Z,16.92
2022-09-21T16:51:24.353Z,16.86
2022-09-21T16:53:51.869Z,16.83
2022-09-21T16:56:18.807Z,16.80
2022-09-21T16:58:45.782Z,16.77
2022-09-21T17:01:18.772Z,16.76
2022-09-21T17:03:47.426Z,16.71
2022-09-21T17:06:18.698Z,16.69
2022-09-21T17:08:48.239Z,16.59
2022-09-21T17:11:19.947Z,16.65
2022-09-21T17:13:47.810Z,16.56
2022-09-21T17:16:18.144Z,16.57
2022-09-21T17:18:48.432Z,16.48
2022-09-21T17:21:15.857Z,16.49
2022-09-21T17:23:42.951Z,16.43
2022-09-21T17:26:15.350Z,16.38
2022-09-21T17:28:42.234Z,16.37
2022-09-21T17:31:13.980Z,16.29
2022-09-21T17:33:41.448Z,16.21
2022-09-21T17:36:14.807Z,16.29
2022-09-21T17:38:42.507Z,16.23
2022-09-21T17:41:32.512Z,16.23
2022-09-21T17:44:08.483Z,16.17
2022-09-21T17:46:51.585Z,16.09
2022-09-21T17:49:18.953Z,16.08
2022-09-21T17:52:04.721Z,16.12
2022-09-21T17:54:31.821Z,15.94
2022-09-21T17:57:34.628Z,15.97
2022-09-21T18:00:14.363Z,16.00
2022-09-21T18:02:41.830Z,15.89
2022-09-21T18:05:23.188Z,15.83
2022-09-21T18:07:51.152Z,15.83
2022-09-21T18:10:22.335Z,15.86
2022-09-21T18:12:59.155Z,15.77
2022-09-21T18:15:29.362Z,15.75
2022-09-21T18:18:20.386Z,15.76
2022-09-21T18:20:57.849Z,15.74
2022-09-21T18:23:55.549Z,15.67
2022-09-21T18:26:23.573Z,15.72
2022-09-21T18:28:56.999Z,15.70
2022-09-21T18:31:51.134Z,15.62
2022-09-21T18:34:54.745Z,15.63
2022-09-21T18:38:00.136Z,15.64
2022-09-21T18:40:53.416Z,15.54
2022-09-21T18:43:28.766Z,15.54
2022-09-21T18:46:01.900Z,15.49
2022-09-21T18:48:51.122Z,15.43
2022-09-21T18:51:21.003Z,15.45
2022-09-21T18:53:58.734Z,15.43
2022-09-21T18:56:27.111Z,15.35
2022-09-21T18:58:54.439Z,15.35
2022-09-21T19:01:23.057Z,15.35
2022-09-21T19:03:50.366Z,15.33
2022-09-21T19:06:27.408Z,15.31
2022-09-21T19:08:57.939Z,15.31
2022-09-21T19:11:40.861Z,15.23
2022-09-21T19:14:16.866Z,15.19
2022-09-21T19:16:53.013Z,15.25
2022-09-21T19:19:41.274Z,15.23
2022-09-21T19:22:30.201Z,15.16
2022-09-21T19:25:05.845Z,15.18
2022-09-21T19:27:40.690Z,15.14
2022-09-21T19:30:08.983Z,15.17
2022-09-21T19:32:43.861Z,15.14
2022-09-21T19:35:32.739Z,15.11
2022-09-21T19:38:04.195Z,15.06
2022-09-21T19:40:37.054Z,15.09
2022-09-21T19:43:34.886Z,15.11
2022-09-21T19:46:07.557Z,15.05
2022-09-21T19:48:55.391Z,15.04
2022-09-21T19:51:37.721Z,15.03
2022-09-21T19:54:29.317Z,14.98
2022-09-21T19:57:14.678Z,14.96
2022-09-21T19:59:45.116Z,14.99
2022-09-21T20:02:13.007Z,15.01
2022-09-21T20:04:56.238Z,15.01
2022-09-21T20:07:34.906Z,14.95
2022-09-21T20:10:24.651Z,15.01
2022-09-21T20:13:04.944Z,14.98
2022-09-21T20:15:36.815Z,14.89
2022-09-21T20:18:11.664Z,14.93
2022-09-21T20:20:42.104Z,14.89
2022-09-21T20:23:11.242Z,14.92
2022-09-21T20:25:43.763Z,14.89
2022-09-21T20:28:11.504Z,14.96
2022-09-21T20:30:38.489Z,14.84
2022-09-21T20:33:15.812Z,14.81
2022-09-21T20:35:43.238Z,14.83
2022-09-21T20:38:10.574Z,14.83
2022-09-21T20:40:37.538Z,14.80
2022-09-21T20:43:04.557Z,14.82
2022-09-21T20:45:33.194Z,14.80
2022-09-21T20:48:15.671Z,14.84
2022-09-21T20:50:44.530Z,14.74
2022-09-21T20:53:11.414Z,14.80
2022-09-21T20:55:39.479Z,14.79
2022-09-21T20:58:06.879Z,14.71
2022-09-21T21:00:34.115Z,14.79
2022-09-21T21:03:00.905Z,14.76
2022-09-21T21:05:29.218Z,14.72
2022-09-21T21:07:56.748Z,14.78
2022-09-21T21:10:24.172Z,14.73
2022-09-21T21:12:51.484Z,14.73
2022-09-21T21:15:18.552Z,14.76
2022-09-21T21:17:46.874Z,14.74
2022-09-21T21:20:16.338Z,14.66
2022-09-21T21:22:44.505Z,14.62
2022-09-21T21:25:11.399Z,14.65
2022-09-21T21:27:38.577Z,14.68
2022-09-21T21:30:07.002Z,14.62
2022-09-21T21:32:34.055Z,14.61
2022-09-21T21:35:01.156Z,14.61
2022-09-21T21:37:28.199Z,14.63
2022-09-21T21:39:56.103Z,14.59
2022-09-21T21:42:24.816Z,14.54
2022-09-21T21:44:51.609Z,14.57
2022-09-21T21:47:38.756Z,14.56
2022-09-21T21:50:06.153Z,14.54
2022-09-21T21:52:32.948Z,14.58
2022-09-21T21:54:59.719Z,14.58
2022-09-21T21:57:26.795Z,14.53
2022-09-21T21:59:53.808Z,14.53
2022-09-21T22:02:20.797Z,14.53
2022-09-21T22:04:47.892Z,14.48
2022-09-21T22:07:14.717Z,14.46
2022-09-21T22:09:41.519Z,14.47
2022-09-21T22:12:09.667Z,14.47
2022-09-21T22:14:36.819Z,14.41
2022-09-21T22:17:03.674Z,14.35
2022-09-21T22:19:30.772Z,14.42
2022-09-21T22:21:57.731Z,14.43
2022-09-21T22:24:24.625Z,14.40
2022-09-21T22:26:51.717Z,14.36
2022-09-21T22:29:18.496Z,14.34
2022-09-21T22:31:48.205Z,14.37
2022-09-21T22:34:15.671Z,14.37
2022-09-21T22:36:45.532Z,14.25
2022-09-21T22:39:12.517Z,14.32
2022-09-21T22:41:41.143Z,14.35
2022-09-21T22:44:08.159Z,14.32
2022-09-21T22:46:35.103Z,14.27
2022-09-21T22:49:02.251Z,14.27
2022-09-21T22:51:29.421Z,14.22
2022-09-21T22:53:56.621Z,14.25
2022-09-21T22:56:25.487Z,14.26
2022-09-21T22:58:53.967Z,14.20
2022-09-21T23:01:26.760Z,14.16
2022-09-21T23:03:58.558Z,14.20
2022-09-21T23:06:28.129Z,14.09
2022-09-21T23:08:56.276Z,14.14
2022-09-21T23:11:31.287Z,14.07
2022-09-21T23:13:58.674Z,14.03
2022-09-21T23:16:26.400Z,14.09
2022-09-21T23:18:53.724Z,14.05
2022-09-21T23:21:23.293Z,14.05
2022-09-21T23:23:50.410Z,13.99
2022-09-21T23:26:19.185Z,13.97
2022-09-21T23:28:51.049Z,13.97
2022-09-21T23:31:18.045Z,13.98
2022-09-21T23:33:47.096Z,13.98
2022-09-21T23:36:16.288Z,13.94
2022-09-21T23:38:43.240Z,13.96
2022-09-21T23:41:18.908Z,13.86
2022-09-21T23:43:46.224Z,13.85
2022-09-21T23:46:15.122Z,13.85
2022-09-21T23:48:42.198Z,13.79
2022-09-21T23:51:09.453Z,13.77
2022-09-21T23:53:36.702Z,13.76
2022-09-21T23:56:03.998Z,13.77
2022-09-21T23:58:31.047Z,13.76
